sensor_id;sensor_type;location;lat;lon;timestamp;P1;durP1;ratioP1;P2;durP2;ratioP2
55758;SDS011;41678;52.126;20.664;2023-04-25T00:01:26;14.57;;;8.70;;
55758;SDS011;41678;52.126;20.664;2023-04-25T00:06:46;16.67;;;8.40;;
55758;SDS011;41678;52.126;20.664;2023-04-25T00:12:05;17.95;;;8.27;;
55758;SDS011;41678;52.126;20.664;2023-04-25T00:17:25;17.48;;;7.88;;
55758;SDS011;41678;52.126;20.664;2023-04-25T00:22:45;13.85;;;7.13;;
55758;SDS011;41678;52.126;20.664;2023-04-25T00:28:05;13.68;;;6.97;;
55758;SDS011;41678;52.126;20.664;2023-04-25T00:33:25;18.48;;;7.10;;
55758;SDS011;41678;52.126;20.664;2023-04-25T00:38:44;11.70;;;6.40;;
55758;SDS011;41678;52.126;20.664;2023-04-25T00:44:04;13.10;;;6.18;;
55758;SDS011;41678;52.126;20.664;2023-04-25T00:49:26;13.35;;;5.10;;
55758;SDS011;41678;52.126;20.664;2023-04-25T00:54:45;13.95;;;6.03;;
55758;SDS011;41678;52.126;20.664;2023-04-25T01:00:05;9.82;;;5.28;;
55758;SDS011;41678;52.126;20.664;2023-04-25T01:05:27;13.60;;;5.45;;
55758;SDS011;41678;52.126;20.664;2023-04-25T01:10:47;11.98;;;5.32;;
55758;SDS011;41678;52.126;20.664;2023-04-25T01:16:06;9.45;;;4.82;;
55758;SDS011;41678;52.126;20.664;2023-04-25T01:21:27;9.60;;;5.25;;
55758;SDS011;41678;52.126;20.664;2023-04-25T01:26:49;11.55;;;4.43;;
55758;SDS011;41678;52.126;20.664;2023-04-25T01:32:11;9.02;;;4.32;;
55758;SDS011;41678;52.126;20.664;2023-04-25T01:37:33;10.63;;;4.78;;
55758;SDS011;41678;52.126;20.664;2023-04-25T01:42:53;10.00;;;4.47;;
55758;SDS011;41678;52.126;20.664;2023-04-25T01:48:13;11.07;;;4.75;;
55758;SDS011;41678;52.126;20.664;2023-04-25T01:53:33;12.00;;;4.75;;
55758;SDS011;41678;52.126;20.664;2023-04-25T01:58:54;8.97;;;4.33;;
55758;SDS011;41678;52.126;20.664;2023-04-25T02:04:13;9.35;;;4.72;;
55758;SDS011;41678;52.126;20.664;2023-04-25T02:09:34;11.32;;;4.97;;
55758;SDS011;41678;52.126;20.664;2023-04-25T02:14:58;10.57;;;4.25;;
55758;SDS011;41678;52.126;20.664;2023-04-25T02:20:43;11.50;;;4.93;;
55758;SDS011;41678;52.126;20.664;2023-04-25T02:26:03;9.23;;;3.85;;
55758;SDS011;41678;52.126;20.664;2023-04-25T02:31:23;10.68;;;4.78;;
55758;SDS011;41678;52.126;20.664;2023-04-25T02:36:44;8.13;;;4.03;;
55758;SDS011;41678;52.126;20.664;2023-04-25T02:42:04;11.68;;;4.22;;
55758;SDS011;41678;52.126;20.664;2023-04-25T02:47:24;12.45;;;4.10;;
55758;SDS011;41678;52.126;20.664;2023-04-25T02:52:44;8.68;;;3.90;;
55758;SDS011;41678;52.126;20.664;2023-04-25T02:58:11;9.80;;;3.95;;
55758;SDS011;41678;52.126;20.664;2023-04-25T03:03:43;9.63;;;3.33;;
55758;SDS011;41678;52.126;20.664;2023-04-25T03:09:02;7.97;;;3.63;;
55758;SDS011;41678;52.126;20.664;2023-04-25T03:14:23;7.47;;;3.17;;
55758;SDS011;41678;52.126;20.664;2023-04-25T03:19:43;9.75;;;3.58;;
55758;SDS011;41678;52.126;20.664;2023-04-25T03:25:04;8.50;;;3.67;;
55758;SDS011;41678;52.126;20.664;2023-04-25T03:30:24;6.07;;;2.67;;
55758;SDS011;41678;52.126;20.664;2023-04-25T03:35:44;8.25;;;3.50;;
55758;SDS011;41678;52.126;20.664;2023-04-25T03:41:04;7.22;;;3.08;;
55758;SDS011;41678;52.126;20.664;2023-04-25T03:46:34;8.05;;;3.58;;
55758;SDS011;41678;52.126;20.664;2023-04-25T03:51:54;6.03;;;2.88;;
55758;SDS011;41678;52.126;20.664;2023-04-25T03:57:15;7.90;;;3.38;;
55758;SDS011;41678;52.126;20.664;2023-04-25T04:02:36;9.07;;;4.30;;
55758;SDS011;41678;52.126;20.664;2023-04-25T04:07:56;11.23;;;4.25;;
55758;SDS011;41678;52.126;20.664;2023-04-25T04:13:16;12.02;;;4.50;;
55758;SDS011;41678;52.126;20.664;2023-04-25T04:18:37;8.70;;;3.40;;
55758;SDS011;41678;52.126;20.664;2023-04-25T04:23:57;8.57;;;4.00;;
55758;SDS011;41678;52.126;20.664;2023-04-25T04:29:21;11.60;;;3.78;;
55758;SDS011;41678;52.126;20.664;2023-04-25T04:34:53;9.15;;;4.63;;
55758;SDS011;41678;52.126;20.664;2023-04-25T04:40:16;11.70;;;4.65;;
55758;SDS011;41678;52.126;20.664;2023-04-25T04:45:43;9.90;;;4.70;;
55758;SDS011;41678;52.126;20.664;2023-04-25T04:51:15;8.43;;;4.50;;
55758;SDS011;41678;52.126;20.664;2023-04-25T04:56:53;10.77;;;5.45;;
55758;SDS011;41678;52.126;20.664;2023-04-25T05:02:33;9.43;;;4.38;;
55758;SDS011;41678;52.126;20.664;2023-04-25T05:08:03;8.77;;;4.70;;
55758;SDS011;41678;52.126;20.664;2023-04-25T05:13:46;9.82;;;4.47;;
55758;SDS011;41678;52.126;20.664;2023-04-25T05:19:18;8.00;;;4.73;;
55758;SDS011;41678;52.126;20.664;2023-04-25T05:30:30;12.20;;;4.50;;
55758;SDS011;41678;52.126;20.664;2023-04-25T05:35:57;9.63;;;4.88;;
55758;SDS011;41678;52.126;20.664;2023-04-25T05:41:18;12.85;;;4.50;;
55758;SDS011;41678;52.126;20.664;2023-04-25T05:46:37;9.70;;;4.72;;
55758;SDS011;41678;52.126;20.664;2023-04-25T05:52:16;9.75;;;5.13;;
55758;SDS011;41678;52.126;20.664;2023-04-25T05:57:42;8.48;;;4.95;;
55758;SDS011;41678;52.126;20.664;2023-04-25T06:03:04;6.63;;;3.10;;
55758;SDS011;41678;52.126;20.664;2023-04-25T06:08:24;8.50;;;4.03;;
55758;SDS011;41678;52.126;20.664;2023-04-25T06:13:45;16.48;;;4.90;;
55758;SDS011;41678;52.126;20.664;2023-04-25T06:19:05;10.95;;;5.10;;
55758;SDS011;41678;52.126;20.664;2023-04-25T06:24:26;8.52;;;4.18;;
55758;SDS011;41678;52.126;20.664;2023-04-25T06:29:46;10.13;;;4.80;;
55758;SDS011;41678;52.126;20.664;2023-04-25T06:35:07;11.47;;;4.63;;
55758;SDS011;41678;52.126;20.664;2023-04-25T06:40:27;9.98;;;3.72;;
55758;SDS011;41678;52.126;20.664;2023-04-25T06:45:47;10.43;;;4.03;;
55758;SDS011;41678;52.126;20.664;2023-04-25T06:51:09;7.28;;;3.10;;
55758;SDS011;41678;52.126;20.664;2023-04-25T06:56:30;12.13;;;5.18;;
55758;SDS011;41678;52.126;20.664;2023-04-25T07:01:56;7.97;;;3.30;;
55758;SDS011;41678;52.126;20.664;2023-04-25T07:07:19;10.32;;;3.80;;
55758;SDS011;41678;52.126;20.664;2023-04-25T07:12:46;7.57;;;3.92;;
55758;SDS011;41678;52.126;20.664;2023-04-25T07:18:06;9.15;;;4.43;;
55758;SDS011;41678;52.126;20.664;2023-04-25T07:23:25;7.80;;;3.58;;
55758;SDS011;41678;52.126;20.664;2023-04-25T07:28:46;9.00;;;3.40;;
55758;SDS011;41678;52.126;20.664;2023-04-25T07:34:09;5.82;;;2.83;;
55758;SDS011;41678;52.126;20.664;2023-04-25T07:44:57;9.52;;;2.80;;
55758;SDS011;41678;52.126;20.664;2023-04-25T07:50:16;6.03;;;2.47;;
55758;SDS011;41678;52.126;20.664;2023-04-25T07:55:37;7.03;;;2.53;;
55758;SDS011;41678;52.126;20.664;2023-04-25T08:01:04;7.00;;;2.50;;
55758;SDS011;41678;52.126;20.664;2023-04-25T08:06:30;7.72;;;2.85;;
55758;SDS011;41678;52.126;20.664;2023-04-25T08:11:58;8.18;;;2.85;;
55758;SDS011;41678;52.126;20.664;2023-04-25T08:17:23;5.35;;;2.25;;
55758;SDS011;41678;52.126;20.664;2023-04-25T08:22:43;5.57;;;2.40;;
55758;SDS011;41678;52.126;20.664;2023-04-25T08:28:22;9.05;;;3.10;;
55758;SDS011;41678;52.126;20.664;2023-04-25T08:33:42;7.82;;;2.88;;
55758;SDS011;41678;52.126;20.664;2023-04-25T08:39:19;7.65;;;3.10;;
55758;SDS011;41678;52.126;20.664;2023-04-25T08:45:01;7.45;;;3.25;;
55758;SDS011;41678;52.126;20.664;2023-04-25T08:50:25;7.30;;;2.28;;
55758;SDS011;41678;52.126;20.664;2023-04-25T08:55:46;7.57;;;3.40;;
55758;SDS011;41678;52.126;20.664;2023-04-25T09:01:08;7.78;;;3.25;;
55758;SDS011;41678;52.126;20.664;2023-04-25T09:06:36;8.30;;;3.95;;
55758;SDS011;41678;52.126;20.664;2023-04-25T09:11:56;6.45;;;3.35;;
55758;SDS011;41678;52.126;20.664;2023-04-25T09:22:49;7.85;;;4.28;;
55758;SDS011;41678;52.126;20.664;2023-04-25T09:28:09;11.65;;;5.05;;
55758;SDS011;41678;52.126;20.664;2023-04-25T09:33:30;14.85;;;4.32;;
55758;SDS011;41678;52.126;20.664;2023-04-25T09:38:52;7.82;;;4.45;;
55758;SDS011;41678;52.126;20.664;2023-04-25T09:44:30;7.63;;;3.80;;
55758;SDS011;41678;52.126;20.664;2023-04-25T09:49:51;8.27;;;4.35;;
55758;SDS011;41678;52.126;20.664;2023-04-25T09:55:13;11.55;;;3.92;;
55758;SDS011;41678;52.126;20.664;2023-04-25T10:00:34;8.18;;;4.05;;
55758;SDS011;41678;52.126;20.664;2023-04-25T10:06:11;9.65;;;4.10;;
55758;SDS011;41678;52.126;20.664;2023-04-25T10:11:33;6.28;;;2.90;;
55758;SDS011;41678;52.126;20.664;2023-04-25T10:16:54;6.18;;;2.65;;
55758;SDS011;41678;52.126;20.664;2023-04-25T10:27:56;6.20;;;3.15;;
55758;SDS011;41678;52.126;20.664;2023-04-25T10:33:16;8.52;;;3.00;;
55758;SDS011;41678;52.126;20.664;2023-04-25T10:38:38;6.72;;;3.28;;
55758;SDS011;41678;52.126;20.664;2023-04-25T10:43:59;8.30;;;2.80;;
55758;SDS011;41678;52.126;20.664;2023-04-25T10:49:42;8.80;;;2.90;;
55758;SDS011;41678;52.126;20.664;2023-04-25T10:55:07;6.45;;;2.80;;
55758;SDS011;41678;52.126;20.664;2023-04-25T11:00:27;6.20;;;2.85;;
55758;SDS011;41678;52.126;20.664;2023-04-25T11:11:09;7.47;;;2.78;;
55758;SDS011;41678;52.126;20.664;2023-04-25T11:16:29;7.78;;;2.85;;
55758;SDS011;41678;52.126;20.664;2023-04-25T11:21:50;7.47;;;3.13;;
55758;SDS011;41678;52.126;20.664;2023-04-25T11:27:14;9.65;;;3.40;;
55758;SDS011;41678;52.126;20.664;2023-04-25T11:32:34;4.95;;;1.98;;
55758;SDS011;41678;52.126;20.664;2023-04-25T11:37:53;6.65;;;2.70;;
55758;SDS011;41678;52.126;20.664;2023-04-25T11:43:15;7.30;;;3.08;;
55758;SDS011;41678;52.126;20.664;2023-04-25T11:48:38;7.05;;;2.80;;
55758;SDS011;41678;52.126;20.664;2023-04-25T11:53:58;10.05;;;3.63;;
55758;SDS011;41678;52.126;20.664;2023-04-25T11:59:18;5.97;;;2.72;;
55758;SDS011;41678;52.126;20.664;2023-04-25T12:04:43;9.38;;;3.25;;
55758;SDS011;41678;52.126;20.664;2023-04-25T12:10:06;7.32;;;3.25;;
55758;SDS011;41678;52.126;20.664;2023-04-25T12:15:27;7.32;;;2.72;;
55758;SDS011;41678;52.126;20.664;2023-04-25T12:20:47;5.32;;;2.47;;
55758;SDS011;41678;52.126;20.664;2023-04-25T12:26:06;5.78;;;2.70;;
55758;SDS011;41678;52.126;20.664;2023-04-25T12:31:26;6.28;;;2.63;;
55758;SDS011;41678;52.126;20.664;2023-04-25T12:36:46;6.55;;;3.05;;
55758;SDS011;41678;52.126;20.664;2023-04-25T12:42:07;5.80;;;2.15;;
55758;SDS011;41678;52.126;20.664;2023-04-25T12:47:32;7.53;;;3.20;;
55758;SDS011;41678;52.126;20.664;2023-04-25T12:58:14;7.05;;;2.72;;
55758;SDS011;41678;52.126;20.664;2023-04-25T13:03:34;6.33;;;3.00;;
55758;SDS011;41678;52.126;20.664;2023-04-25T13:08:55;5.88;;;3.05;;
55758;SDS011;41678;52.126;20.664;2023-04-25T13:14:15;8.85;;;3.42;;
55758;SDS011;41678;52.126;20.664;2023-04-25T13:19:35;7.38;;;3.60;;
55758;SDS011;41678;52.126;20.664;2023-04-25T13:24:55;7.07;;;3.20;;
55758;SDS011;41678;52.126;20.664;2023-04-25T13:30:14;8.60;;;3.95;;
55758;SDS011;41678;52.126;20.664;2023-04-25T13:35:34;16.15;;;4.75;;
55758;SDS011;41678;52.126;20.664;2023-04-25T13:40:57;7.90;;;3.97;;
55758;SDS011;41678;52.126;20.664;2023-04-25T13:46:16;7.55;;;3.85;;
55758;SDS011;41678;52.126;20.664;2023-04-25T13:51:36;7.35;;;3.97;;
55758;SDS011;41678;52.126;20.664;2023-04-25T13:56:55;7.35;;;3.95;;
55758;SDS011;41678;52.126;20.664;2023-04-25T14:02:17;11.70;;;4.80;;
55758;SDS011;41678;52.126;20.664;2023-04-25T14:07:38;8.17;;;4.07;;
55758;SDS011;41678;52.126;20.664;2023-04-25T14:12:58;10.88;;;5.47;;
55758;SDS011;41678;52.126;20.664;2023-04-25T14:18:18;10.80;;;4.47;;
55758;SDS011;41678;52.126;20.664;2023-04-25T14:23:38;11.80;;;4.57;;
55758;SDS011;41678;52.126;20.664;2023-04-25T14:28:58;11.48;;;4.45;;
55758;SDS011;41678;52.126;20.664;2023-04-25T14:34:17;12.00;;;4.10;;
55758;SDS011;41678;52.126;20.664;2023-04-25T14:39:36;17.58;;;4.88;;
55758;SDS011;41678;52.126;20.664;2023-04-25T14:44:56;20.15;;;6.50;;
55758;SDS011;41678;52.126;20.664;2023-04-25T14:50:16;12.15;;;5.03;;
55758;SDS011;41678;52.126;20.664;2023-04-25T14:55:36;10.15;;;4.68;;
55758;SDS011;41678;52.126;20.664;2023-04-25T15:00:55;12.15;;;5.40;;
55758;SDS011;41678;52.126;20.664;2023-04-25T15:06:15;8.68;;;3.78;;
55758;SDS011;41678;52.126;20.664;2023-04-25T15:11:35;12.50;;;4.30;;
55758;SDS011;41678;52.126;20.664;2023-04-25T15:16:54;8.80;;;3.92;;
55758;SDS011;41678;52.126;20.664;2023-04-25T15:22:14;17.50;;;4.47;;
55758;SDS011;41678;52.126;20.664;2023-04-25T15:27:34;18.90;;;4.70;;
55758;SDS011;41678;52.126;20.664;2023-04-25T15:32:58;11.05;;;5.80;;
55758;SDS011;41678;52.126;20.664;2023-04-25T15:38:20;10.40;;;4.43;;
55758;SDS011;41678;52.126;20.664;2023-04-25T15:43:39;11.63;;;4.43;;
55758;SDS011;41678;52.126;20.664;2023-04-25T15:48:59;8.95;;;4.68;;
55758;SDS011;41678;52.126;20.664;2023-04-25T15:54:18;8.70;;;4.15;;
55758;SDS011;41678;52.126;20.664;2023-04-25T15:59:38;9.32;;;4.93;;
55758;SDS011;41678;52.126;20.664;2023-04-25T16:04:58;9.82;;;4.22;;
55758;SDS011;41678;52.126;20.664;2023-04-25T16:10:17;13.98;;;4.88;;
55758;SDS011;41678;52.126;20.664;2023-04-25T16:15:39;8.48;;;4.63;;
55758;SDS011;41678;52.126;20.664;2023-04-25T16:20:59;9.07;;;4.90;;
55758;SDS011;41678;52.126;20.664;2023-04-25T16:26:19;11.38;;;5.38;;
55758;SDS011;41678;52.126;20.664;2023-04-25T16:31:40;11.15;;;4.95;;
55758;SDS011;41678;52.126;20.664;2023-04-25T16:37:00;11.93;;;4.28;;
55758;SDS011;41678;52.126;20.664;2023-04-25T16:42:19;15.52;;;5.18;;
55758;SDS011;41678;52.126;20.664;2023-04-25T16:47:39;9.23;;;4.65;;
55758;SDS011;41678;52.126;20.664;2023-04-25T16:52:59;9.32;;;4.72;;
55758;SDS011;41678;52.126;20.664;2023-04-25T16:58:18;8.85;;;4.53;;
55758;SDS011;41678;52.126;20.664;2023-04-25T17:03:38;14.38;;;4.90;;
55758;SDS011;41678;52.126;20.664;2023-04-25T17:08:59;13.10;;;5.03;;
55758;SDS011;41678;52.126;20.664;2023-04-25T17:14:19;10.50;;;5.00;;
55758;SDS011;41678;52.126;20.664;2023-04-25T17:19:38;14.10;;;5.38;;
55758;SDS011;41678;52.126;20.664;2023-04-25T17:24:57;14.60;;;6.55;;
55758;SDS011;41678;52.126;20.664;2023-04-25T17:30:17;14.27;;;6.03;;
55758;SDS011;41678;52.126;20.664;2023-04-25T17:35:37;11.82;;;5.30;;
55758;SDS011;41678;52.126;20.664;2023-04-25T17:40:57;10.95;;;4.60;;
55758;SDS011;41678;52.126;20.664;2023-04-25T17:46:16;15.95;;;5.28;;
55758;SDS011;41678;52.126;20.664;2023-04-25T17:51:36;12.50;;;5.40;;
55758;SDS011;41678;52.126;20.664;2023-04-25T17:56:56;11.52;;;5.03;;
55758;SDS011;41678;52.126;20.664;2023-04-25T18:02:15;15.68;;;5.07;;
55758;SDS011;41678;52.126;20.664;2023-04-25T18:07:35;14.10;;;5.03;;
55758;SDS011;41678;52.126;20.664;2023-04-25T18:12:55;14.15;;;6.32;;
55758;SDS011;41678;52.126;20.664;2023-04-25T18:18:14;25.55;;;9.63;;
55758;SDS011;41678;52.126;20.664;2023-04-25T18:23:38;39.45;;;12.98;;
55758;SDS011;41678;52.126;20.664;2023-04-25T18:28:57;62.60;;;18.73;;
55758;SDS011;41678;52.126;20.664;2023-04-25T18:34:17;26.35;;;10.63;;
55758;SDS011;41678;52.126;20.664;2023-04-25T18:39:38;109.07;;;35.42;;
55758;SDS011;41678;52.126;20.664;2023-04-25T18:44:59;110.40;;;41.50;;
55758;SDS011;41678;52.126;20.664;2023-04-25T18:50:19;78.95;;;30.15;;
55758;SDS011;41678;52.126;20.664;2023-04-25T18:55:41;53.58;;;23.15;;
55758;SDS011;41678;52.126;20.664;2023-04-25T19:01:00;63.92;;;26.10;;
55758;SDS011;41678;52.126;20.664;2023-04-25T19:06:21;37.67;;;18.55;;
55758;SDS011;41678;52.126;20.664;2023-04-25T19:11:47;30.95;;;14.48;;
55758;SDS011;41678;52.126;20.664;2023-04-25T19:17:07;16.90;;;9.38;;
55758;SDS011;41678;52.126;20.664;2023-04-25T19:22:27;23.63;;;10.73;;
55758;SDS011;41678;52.126;20.664;2023-04-25T19:27:46;21.05;;;9.57;;
55758;SDS011;41678;52.126;20.664;2023-04-25T19:33:06;17.02;;;9.75;;
55758;SDS011;41678;52.126;20.664;2023-04-25T19:38:25;15.88;;;9.43;;
55758;SDS011;41678;52.126;20.664;2023-04-25T19:43:45;19.40;;;10.20;;
55758;SDS011;41678;52.126;20.664;2023-04-25T19:49:05;17.27;;;9.85;;
55758;SDS011;41678;52.126;20.664;2023-04-25T19:54:25;20.35;;;10.55;;
55758;SDS011;41678;52.126;20.664;2023-04-25T19:59:45;23.73;;;11.23;;
55758;SDS011;41678;52.126;20.664;2023-04-25T20:05:06;20.80;;;9.55;;
55758;SDS011;41678;52.126;20.664;2023-04-25T20:10:27;23.55;;;10.52;;
55758;SDS011;41678;52.126;20.664;2023-04-25T20:15:46;22.00;;;10.75;;
55758;SDS011;41678;52.126;20.664;2023-04-25T20:21:05;23.08;;;11.20;;
55758;SDS011;41678;52.126;20.664;2023-04-25T20:26:27;22.55;;;12.05;;
55758;SDS011;41678;52.126;20.664;2023-04-25T20:31:47;17.20;;;8.90;;
55758;SDS011;41678;52.126;20.664;2023-04-25T20:37:08;23.23;;;11.50;;
55758;SDS011;41678;52.126;20.664;2023-04-25T20:42:28;20.33;;;10.90;;
55758;SDS011;41678;52.126;20.664;2023-04-25T20:47:48;29.48;;;12.48;;
55758;SDS011;41678;52.126;20.664;2023-04-25T20:53:08;23.60;;;12.88;;
55758;SDS011;41678;52.126;20.664;2023-04-25T20:58:28;22.33;;;11.70;;
55758;SDS011;41678;52.126;20.664;2023-04-25T21:03:47;22.63;;;11.35;;
55758;SDS011;41678;52.126;20.664;2023-04-25T21:09:08;24.65;;;10.63;;
55758;SDS011;41678;52.126;20.664;2023-04-25T21:14:27;17.65;;;9.82;;
55758;SDS011;41678;52.126;20.664;2023-04-25T21:19:48;18.70;;;9.20;;
55758;SDS011;41678;52.126;20.664;2023-04-25T21:25:07;15.02;;;7.57;;
55758;SDS011;41678;52.126;20.664;2023-04-25T21:30:28;17.98;;;7.88;;
55758;SDS011;41678;52.126;20.664;2023-04-25T21:35:48;9.65;;;5.05;;
55758;SDS011;41678;52.126;20.664;2023-04-25T21:41:07;11.48;;;5.70;;
55758;SDS011;41678;52.126;20.664;2023-04-25T21:46:27;16.92;;;4.40;;
55758;SDS011;41678;52.126;20.664;2023-04-25T21:51:46;11.93;;;4.30;;
55758;SDS011;41678;52.126;20.664;2023-04-25T21:57:06;9.45;;;4.30;;
55758;SDS011;41678;52.126;20.664;2023-04-25T22:02:26;10.27;;;4.05;;
55758;SDS011;41678;52.126;20.664;2023-04-25T22:07:50;10.80;;;4.07;;
55758;SDS011;41678;52.126;20.664;2023-04-25T22:13:11;11.65;;;4.32;;
55758;SDS011;41678;52.126;20.664;2023-04-25T22:18:31;11.63;;;3.90;;
55758;SDS011;41678;52.126;20.664;2023-04-25T22:23:51;10.45;;;3.85;;
55758;SDS011;41678;52.126;20.664;2023-04-25T22:29:11;15.30;;;3.72;;
55758;SDS011;41678;52.126;20.664;2023-04-25T22:34:30;7.47;;;3.13;;
55758;SDS011;41678;52.126;20.664;2023-04-25T22:39:49;16.33;;;4.22;;
55758;SDS011;41678;52.126;20.664;2023-04-25T22:45:09;9.77;;;3.50;;
55758;SDS011;41678;52.126;20.664;2023-04-25T22:50:29;10.40;;;3.20;;
55758;SDS011;41678;52.126;20.664;2023-04-25T22:55:53;7.22;;;2.97;;
55758;SDS011;41678;52.126;20.664;2023-04-25T23:01:16;7.63;;;3.05;;
55758;SDS011;41678;52.126;20.664;2023-04-25T23:06:37;16.20;;;4.10;;
55758;SDS011;41678;52.126;20.664;2023-04-25T23:11:57;7.68;;;2.92;;
55758;SDS011;41678;52.126;20.664;2023-04-25T23:17:17;16.33;;;3.72;;
55758;SDS011;41678;52.126;20.664;2023-04-25T23:22:38;10.63;;;3.00;;
55758;SDS011;41678;52.126;20.664;2023-04-25T23:27:58;8.38;;;2.60;;
55758;SDS011;41678;52.126;20.664;2023-04-25T23:33:17;12.95;;;3.45;;
55758;SDS011;41678;52.126;20.664;2023-04-25T23:38:37;17.00;;;3.72;;
55758;SDS011;41678;52.126;20.664;2023-04-25T23:43:56;9.85;;;4.03;;
55758;SDS011;41678;52.126;20.664;2023-04-25T23:49:15;8.00;;;3.38;;
55758;SDS011;41678;52.126;20.664;2023-04-25T23:54:35;15.45;;;4.38;;
55758;SDS011;41678;52.126;20.664;2023-04-25T23:59:54;15.30;;;3.33;;
